Time;durP1;ratioP1;P1;durP2;ratioP2;P2;SDS_P1;SDS_P2;PMS_P1;PMS_P2;Temp;Humidity;BMP_temperature;BMP_pressure;BME280_temperature;BME280_humidity;BME280_pressure;Samples;Min_cycle;Max_cycle;Signal;HPM_P1;HPM_P2
2023/03/04 00:02:19;;;;;;;105.13;34.30;;;;;;;-0.99;100.00;95824.69;5012243;28;20061;-73
2023/03/04 00:04:44;;;;;;;112.57;34.92;;;;;;;-1.03;100.00;95817.47;5013063;28;20048;-74
2023/03/04 00:07:15;;;;;;;105.78;34.83;;;;;;;-1.06;100.00;95813.50;5018452;28;20121;-73
2023/03/04 00:09:42;;;;;;;120.28;37.47;;;;;;;-1.04;100.00;95821.88;5010826;28;20034;-73
2023/03/04 00:12:07;;;;;;;118.32;35.22;;;;;;;-1.15;100.00;95817.22;5009040;28;20042;-74
2023/03/04 00:14:33;;;;;;;106.22;35.35;;;;;;;-1.10;100.00;95820.84;5013857;28;20046;-74
2023/03/04 00:16:58;;;;;;;113.95;33.85;;;;;;;-1.15;100.00;95820.63;5016167;28;20037;-74
2023/03/04 00:19:24;;;;;;;120.13;35.75;;;;;;;-1.17;100.00;95816.63;5009235;28;20042;-74
2023/03/04 00:21:50;;;;;;;125.97;35.83;;;;;;;-1.14;100.00;95821.41;5015189;28;20042;-74
2023/03/04 00:24:15;;;;;;;114.47;34.10;;;;;;;-1.16;100.00;95823.38;5009239;28;20038;-74
2023/03/04 00:26:41;;;;;;;117.95;36.53;;;;;;;-1.14;100.00;95821.41;5011705;28;20088;-75
2023/03/04 00:29:06;;;;;;;116.38;35.92;;;;;;;-1.10;100.00;95827.78;5008806;28;20528;-75
2023/03/04 00:31:32;;;;;;;122.80;36.33;;;;;;;-1.18;100.00;95826.13;5011101;28;20049;-74
2023/03/04 00:33:57;;;;;;;115.57;35.40;;;;;;;-1.22;100.00;95820.56;5007003;28;20333;-74
2023/03/04 00:36:23;;;;;;;118.82;35.08;;;;;;;-1.14;100.00;95821.41;5009773;28;20046;-74
2023/03/04 00:38:49;;;;;;;119.05;33.40;;;;;;;-1.25;100.00;95826.09;5008809;28;20037;-74
2023/03/04 00:41:14;;;;;;;135.90;38.05;;;;;;;-1.23;100.00;95829.28;5012557;28;20622;-75
2023/03/04 00:43:40;;;;;;;116.68;33.28;;;;;;;-1.30;100.00;95833.59;5014360;28;20034;-73
2023/03/04 00:46:05;;;;;;;128.27;35.88;;;;;;;-1.38;100.00;95831.13;5010225;28;20486;-73
2023/03/04 00:48:31;;;;;;;109.43;34.63;;;;;;;-1.41;100.00;95832.31;5011876;28;20046;-73
2023/03/04 00:50:57;;;;;;;120.53;34.92;;;;;;;-1.35;100.00;95829.97;5010849;28;20418;-74
2023/03/04 00:53:22;;;;;;;129.27;36.38;;;;;;;-1.36;100.00;95824.00;5011124;28;20434;-74
2023/03/04 00:55:49;;;;;;;130.40;36.25;;;;;;;-1.36;100.00;95834.34;5018547;28;20042;-73
2023/03/04 00:58:14;;;;;;;108.88;33.25;;;;;;;-1.33;100.00;95823.63;5005541;28;20145;-73
2023/03/04 01:00:40;;;;;;;113.22;34.80;;;;;;;-1.43;100.00;95828.31;5008038;28;20041;-73
2023/03/04 01:03:05;;;;;;;122.47;35.95;;;;;;;-1.47;100.00;95832.25;5004513;28;20101;-73
2023/03/04 01:05:33;;;;;;;108.68;34.33;;;;;;;-1.40;100.00;95827.94;5010743;28;20069;-73
2023/03/04 01:07:58;;;;;;;105.47;33.20;;;;;;;-1.43;100.00;95818.00;5025588;28;20065;-73
2023/03/04 01:10:24;;;;;;;117.65;37.38;;;;;;;-1.50;100.00;95819.72;5010586;28;20069;-73
2023/03/04 01:12:50;;;;;;;114.72;35.08;;;;;;;-1.55;100.00;95819.47;5001970;28;20104;-73
2023/03/04 01:15:15;;;;;;;115.68;34.50;;;;;;;-1.58;100.00;95816.28;5010858;28;20041;-73
2023/03/04 01:17:41;;;;;;;114.78;34.58;;;;;;;-1.60;100.00;95818.25;5008773;28;20042;-74
2023/03/04 01:20:08;;;;;;;111.25;35.53;;;;;;;-1.54;100.00;95810.75;5010602;28;20045;-74
2023/03/04 01:22:34;;;;;;;116.22;35.67;;;;;;;-1.68;100.00;95805.47;5008772;28;20046;-75
2023/03/04 01:25:00;;;;;;;130.32;35.90;;;;;;;-1.69;100.00;95813.41;5010766;28;20034;-74
2023/03/04 01:27:25;;;;;;;116.18;36.17;;;;;;;-1.63;100.00;95797.97;5016824;28;20053;-73
2023/03/04 01:29:51;;;;;;;114.97;36.05;;;;;;;-1.67;100.00;95812.22;5010000;28;20045;-74
2023/03/04 01:32:16;;;;;;;119.93;35.80;;;;;;;-1.61;100.00;95816.66;5008494;28;20038;-75
2023/03/04 01:34:42;;;;;;;114.15;33.63;;;;;;;-1.63;100.00;95802.34;5017050;28;20037;-75
2023/03/04 01:37:08;;;;;;;126.32;35.72;;;;;;;-1.65;100.00;95799.94;5011520;28;20056;-74
2023/03/04 01:39:34;;;;;;;122.07;36.20;;;;;;;-1.61;100.00;95796.00;5009364;28;20532;-74
2023/03/04 01:41:59;;;;;;;123.40;34.47;;;;;;;-1.62;100.00;95794.41;5011662;28;20034;-75
2023/03/04 01:44:25;;;;;;;129.85;36.03;;;;;;;-1.67;100.00;95796.75;5009069;28;20488;-74
2023/03/04 01:46:53;;;;;;;121.68;35.22;;;;;;;-1.57;100.00;95794.66;5010337;28;20046;-74
2023/03/04 01:49:19;;;;;;;118.13;36.05;;;;;;;-1.53;100.00;95799.44;5011844;28;20100;-74
2023/03/04 01:51:53;;;;;;;122.03;35.08;;;;;;;-1.57;100.00;95781.75;5007753;28;20042;-75
2023/03/04 01:54:20;;;;;;;110.50;34.30;;;;;;;-1.67;100.00;95786.41;5006040;28;20554;-74
2023/03/04 01:56:47;;;;;;;105.05;33.20;;;;;;;-1.70;100.00;95786.78;5013556;28;20065;-74
2023/03/04 01:59:19;;;;;;;129.45;35.72;;;;;;;-1.68;100.00;95781.44;5010498;28;20468;-74
2023/03/04 02:01:53;;;;;;;123.30;36.00;;;;;;;-1.63;100.00;95774.75;5010693;28;20038;-75
2023/03/04 02:04:22;;;;;;;113.65;33.92;;;;;;;-1.62;100.00;95776.34;5011009;28;20057;-74
2023/03/04 02:06:49;;;;;;;109.80;32.38;;;;;;;-1.66;100.00;95775.13;5007770;28;20037;-74
2023/03/04 02:09:16;;;;;;;104.88;32.67;;;;;;;-1.80;100.00;95775.97;5009752;28;20041;-74
2023/03/04 02:11:43;;;;;;;98.68;31.83;;;;;;;-1.84;100.00;95765.25;5032711;28;20045;-74
2023/03/04 02:14:10;;;;;;;106.28;32.17;;;;;;;-1.96;100.00;95764.91;5003584;28;20041;-74
2023/03/04 02:16:35;;;;;;;100.57;31.33;;;;;;;-2.09;100.00;95764.81;5013072;28;20142;-74
2023/03/04 02:19:01;;;;;;;94.35;30.98;;;;;;;-2.14;100.00;95759.38;5010137;28;20033;-74
2023/03/04 02:21:30;;;;;;;104.93;32.10;;;;;;;-2.18;100.00;95758.19;5013262;28;20061;-74
2023/03/04 02:24:16;;;;;;;99.65;30.92;;;;;;;-2.22;100.00;95762.09;5000319;28;20041;-73
2023/03/04 02:26:43;;;;;;;90.18;30.52;;;;;;;-2.05;100.00;95754.91;5011945;28;20508;-73
2023/03/04 02:29:14;;;;;;;94.50;31.58;;;;;;;-2.09;100.00;95751.91;5008042;28;20046;-73
2023/03/04 02:31:45;;;;;;;101.50;33.25;;;;;;;-2.19;100.00;95748.84;5015171;28;20042;-73
2023/03/04 02:34:17;;;;;;;102.35;31.73;;;;;;;-2.29;100.00;95749.13;5011091;28;20091;-73
2023/03/04 02:36:44;;;;;;;91.85;30.67;;;;;;;-2.34;100.00;95754.00;5011296;28;20065;-73
2023/03/04 02:39:34;;;;;;;88.57;28.75;;;;;;;-2.38;100.00;95752.81;5015233;28;20041;-73
2023/03/04 02:42:02;;;;;;;98.80;29.67;;;;;;;-2.47;100.00;95754.66;4991919;28;20082;-74
2023/03/04 02:44:36;;;;;;;94.53;29.20;;;;;;;-2.51;100.00;95748.31;5005362;28;20069;-74
2023/03/04 02:47:04;;;;;;;89.60;29.75;;;;;;;-2.49;100.00;95754.06;5019579;28;20033;-74
2023/03/04 02:49:32;;;;;;;88.10;29.65;;;;;;;-2.55;100.00;95757.38;5017477;28;20045;-74
2023/03/04 02:52:01;;;;;;;94.25;28.63;;;;;;;-2.63;100.00;95748.78;5006678;28;20528;-75
2023/03/04 02:54:26;;;;;;;78.63;28.02;;;;;;;-2.61;100.00;95754.53;5023762;28;20030;-75
2023/03/04 02:56:56;;;;;;;87.20;29.90;;;;;;;-2.61;100.00;95746.00;5008342;28;20049;-74
2023/03/04 02:59:22;;;;;;;91.90;29.33;;;;;;;-2.59;100.00;95750.97;5010540;28;20463;-74
2023/03/04 03:01:48;;;;;;;85.60;27.90;;;;;;;-2.61;100.00;95751.94;5005456;28;20068;-75
2023/03/04 03:04:14;;;;;;;81.63;27.73;;;;;;;-2.63;100.00;95745.38;5008417;28;20052;-74
2023/03/04 03:06:40;;;;;;;91.05;28.83;;;;;;;-2.63;100.00;95746.19;5012585;28;20121;-74
2023/03/04 03:09:06;;;;;;;89.95;29.83;;;;;;;-2.59;100.00;95738.88;5009616;28;20061;-74
2023/03/04 03:11:32;;;;;;;93.65;29.70;;;;;;;-2.50;100.00;95749.88;5006557;28;20115;-74
2023/03/04 03:13:57;;;;;;;90.90;29.63;;;;;;;-2.53;100.00;95745.09;5009116;28;20417;-74
2023/03/04 03:16:23;;;;;;;93.65;29.95;;;;;;;-2.56;100.00;95750.63;5011569;28;20046;-74
2023/03/04 03:18:49;;;;;;;93.75;29.65;;;;;;;-2.62;100.00;95744.41;5027296;28;20038;-74
2023/03/04 03:21:14;;;;;;;94.03;30.38;;;;;;;-2.64;100.00;95744.59;5010117;28;20349;-74
2023/03/04 03:23:40;;;;;;;100.13;30.23;;;;;;;-2.64;100.00;95749.72;5011362;28;20164;-74
2023/03/04 03:26:06;;;;;;;89.57;28.15;;;;;;;-2.55;100.00;95752.22;5017092;28;20073;-74
2023/03/04 03:28:32;;;;;;;88.07;28.25;;;;;;;-2.51;100.00;95758.63;5003721;28;20050;-74
2023/03/04 03:30:57;;;;;;;94.15;30.50;;;;;;;-2.48;100.00;95753.09;5011321;28;20395;-74
2023/03/04 03:33:23;;;;;;;91.90;29.75;;;;;;;-2.50;100.00;95761.00;5009611;28;20042;-74
2023/03/04 03:35:48;;;;;;;92.40;27.98;;;;;;;-2.58;100.00;95757.75;5015719;28;20045;-74
2023/03/04 03:38:14;;;;;;;78.63;26.90;;;;;;;-2.52;100.00;95757.78;5010861;28;20041;-74
2023/03/04 03:40:40;;;;;;;90.68;29.40;;;;;;;-2.47;100.00;95754.66;5013772;28;20551;-74
2023/03/04 03:43:05;;;;;;;89.43;29.42;;;;;;;-2.51;100.00;95753.47;5009142;28;20061;-74
2023/03/04 03:45:31;;;;;;;74.82;26.85;;;;;;;-2.58;100.00;95752.59;5018018;28;20519;-74
2023/03/04 03:47:57;;;;;;;93.28;31.58;;;;;;;-2.39;100.00;95759.72;5020371;28;20104;-74
2023/03/04 03:50:22;;;;;;;104.40;31.27;;;;;;;-2.10;100.00;95755.47;5011100;28;20046;-74
2023/03/04 03:52:48;;;;;;;99.07;31.15;;;;;;;-2.12;100.00;95753.06;5010943;28;20048;-74
2023/03/04 03:55:13;;;;;;;104.32;31.60;;;;;;;-2.08;100.00;95758.66;5011028;28;20632;-73
2023/03/04 03:57:39;;;;;;;106.47;32.72;;;;;;;-1.99;100.00;95757.56;5012385;28;20061;-73
2023/03/04 04:00:06;;;;;;;111.30;31.08;;;;;;;-2.06;100.00;95751.53;5008546;28;20047;-73
2023/03/04 04:02:32;;;;;;;112.70;34.70;;;;;;;-1.99;100.00;95756.75;5008173;28;20042;-73
2023/03/04 04:04:58;;;;;;;106.90;32.35;;;;;;;-1.99;100.00;95752.41;5023486;28;20048;-73
2023/03/04 04:07:23;;;;;;;98.15;31.83;;;;;;;-1.99;100.00;95747.25;5013092;28;20042;-74
2023/03/04 04:09:49;;;;;;;113.13;34.30;;;;;;;-1.98;100.00;95754.00;5010941;28;20034;-74
2023/03/04 04:12:15;;;;;;;113.32;32.08;;;;;;;-1.87;100.00;95749.31;5007055;28;20104;-74
2023/03/04 04:14:41;;;;;;;107.53;32.15;;;;;;;-1.95;100.00;95751.06;5009382;28;20390;-74
2023/03/04 04:17:07;;;;;;;101.18;30.55;;;;;;;-1.91;100.00;95748.91;5016386;28;20096;-74
2023/03/04 04:19:33;;;;;;;99.38;31.85;;;;;;;-2.12;100.00;95747.91;5003350;28;20525;-74
2023/03/04 04:21:58;;;;;;;86.40;29.08;;;;;;;-1.99;100.00;95751.59;5015939;28;20042;-74
2023/03/04 04:24:24;;;;;;;93.47;29.63;;;;;;;-1.97;100.00;95747.88;5011829;28;20053;-74
2023/03/04 04:26:49;;;;;;;97.13;31.83;;;;;;;-1.94;100.00;95752.66;5011116;28;20116;-74
2023/03/04 04:29:15;;;;;;;97.55;31.70;;;;;;;-1.97;100.00;95754.78;5007303;28;20042;-74
2023/03/04 04:31:41;;;;;;;90.50;30.27;;;;;;;-2.02;100.00;95755.34;5010248;28;20052;-74
2023/03/04 04:34:07;;;;;;;94.13;31.75;;;;;;;-2.07;100.00;95754.31;5007205;28;20046;-74
2023/03/04 04:36:32;;;;;;;99.68;32.53;;;;;;;-2.15;100.00;95752.66;5010657;28;20056;-74
2023/03/04 04:38:58;;;;;;;100.07;31.40;;;;;;;-2.13;100.00;95750.66;5011338;28;20495;-74
2023/03/04 04:41:28;;;;;;;99.80;30.48;;;;;;;-2.12;100.00;95757.44;5009863;28;20045;-74
2023/03/04 04:43:54;;;;;;;91.82;29.65;;;;;;;-2.13;100.00;95753.25;5001245;28;20034;-74
2023/03/04 04:46:20;;;;;;;90.45;31.25;;;;;;;-2.12;100.00;95752.28;5008979;28;20048;-74
2023/03/04 04:48:46;;;;;;;103.97;31.45;;;;;;;-1.94;100.00;95754.41;5018273;28;20034;-74
2023/03/04 04:51:12;;;;;;;105.28;31.20;;;;;;;-2.04;100.00;95749.59;5009560;28;20042;-74
2023/03/04 04:53:37;;;;;;;105.28;33.45;;;;;;;-2.21;100.00;95753.34;5009184;28;20053;-74
2023/03/04 04:56:11;;;;;;;108.65;33.47;;;;;;;-2.27;100.00;95750.53;5008873;28;20568;-74
2023/03/04 04:58:38;;;;;;;103.05;30.48;;;;;;;-2.14;100.00;95749.06;5010325;28;20159;-75
2023/03/04 05:01:04;;;;;;;100.13;31.02;;;;;;;-2.29;100.00;95751.69;5010230;28;20041;-74
2023/03/04 05:03:30;;;;;;;99.93;31.67;;;;;;;-2.28;100.00;95751.53;5004777;28;20077;-74
2023/03/04 05:05:56;;;;;;;100.97;30.42;;;;;;;-2.28;100.00;95759.25;5008296;28;20072;-74
2023/03/04 05:08:22;;;;;;;94.63;30.00;;;;;;;-2.22;100.00;95757.72;5015254;28;20141;-74
2023/03/04 05:10:47;;;;;;;93.78;31.27;;;;;;;-2.32;100.00;95752.06;5011399;28;20484;-73
2023/03/04 05:13:13;;;;;;;103.80;32.60;;;;;;;-2.22;100.00;95762.09;5008875;28;20053;-73
2023/03/04 05:15:38;;;;;;;86.72;30.13;;;;;;;-2.23;100.00;95763.06;5011155;28;20433;-73
2023/03/04 05:18:04;;;;;;;103.88;32.53;;;;;;;-2.36;100.00;95756.78;5009107;28;20429;-73
2023/03/04 05:20:29;;;;;;;88.40;27.10;;;;;;;-2.25;100.00;95752.16;5009527;28;20046;-74
2023/03/04 05:22:55;;;;;;;86.53;29.52;;;;;;;-2.33;100.00;95759.03;5015456;28;20417;-74
2023/03/04 05:25:21;;;;;;;88.20;28.60;;;;;;;-2.33;100.00;95756.44;5010144;28;20120;-74
2023/03/04 05:27:46;;;;;;;81.68;26.77;;;;;;;-2.44;100.00;95754.34;5007279;28;20516;-75
2023/03/04 05:30:12;;;;;;;79.78;27.65;;;;;;;-2.45;100.00;95755.31;5012204;28;20054;-72
2023/03/04 05:32:37;;;;;;;78.65;27.73;;;;;;;-2.45;100.00;95752.72;5013049;28;20730;-73
2023/03/04 05:35:04;;;;;;;83.93;27.88;;;;;;;-2.39;100.00;95751.19;5001521;28;20120;-73
2023/03/04 05:37:29;;;;;;;88.47;29.70;;;;;;;-2.44;100.00;95759.50;5007390;28;20037;-73
2023/03/04 05:39:55;;;;;;;88.35;28.35;;;;;;;-2.42;100.00;95760.09;5007783;28;20061;-73
2023/03/04 05:42:20;;;;;;;93.10;27.63;;;;;;;-2.49;100.00;95756.63;5006608;28;20045;-73
2023/03/04 05:44:46;;;;;;;74.80;27.08;;;;;;;-2.52;100.00;95762.16;5007754;28;20045;-73
2023/03/04 05:47:11;;;;;;;80.40;26.75;;;;;;;-2.54;100.00;95751.22;5009826;28;20042;-73
2023/03/04 05:49:37;;;;;;;82.38;28.17;;;;;;;-2.36;100.00;95761.94;5021666;28;20045;-73
2023/03/04 05:52:02;;;;;;;86.45;28.13;;;;;;;-2.38;100.00;95758.75;5008594;28;20057;-73
2023/03/04 05:54:28;;;;;;;80.68;27.17;;;;;;;-2.38;100.00;95753.59;5009186;28;20434;-73
2023/03/04 05:56:53;;;;;;;84.03;27.02;;;;;;;-2.34;100.00;95762.56;5008926;28;20041;-73
2023/03/04 05:59:19;;;;;;;81.22;26.38;;;;;;;-2.31;100.00;95769.16;5007338;28;20046;-73
2023/03/04 06:01:45;;;;;;;81.18;27.67;;;;;;;-2.30;100.00;95768.97;5006807;28;20045;-73
2023/03/04 06:04:11;;;;;;;78.85;27.42;;;;;;;-2.27;100.00;95771.16;5015618;28;20041;-73
2023/03/04 06:06:37;;;;;;;77.55;26.77;;;;;;;-2.32;100.00;95768.31;5016896;28;20417;-73
2023/03/04 06:09:03;;;;;;;81.40;27.10;;;;;;;-2.22;100.00;95772.41;5011403;28;20049;-73
2023/03/04 06:11:28;;;;;;;70.45;26.40;;;;;;;-2.33;100.00;95776.25;5015100;28;20045;-73
2023/03/04 06:13:54;;;;;;;75.47;26.95;;;;;;;-2.29;100.00;95778.28;5010135;28;20042;-73
2023/03/04 06:16:19;;;;;;;74.95;27.02;;;;;;;-2.28;100.00;95782.47;5016756;28;20045;-73
2023/03/04 06:18:45;;;;;;;86.55;27.60;;;;;;;-2.18;100.00;95778.81;5007012;28;20050;-73
2023/03/04 06:21:11;;;;;;;81.40;27.20;;;;;;;-2.25;100.00;95783.09;5003570;28;20046;-73
2023/03/04 06:23:37;;;;;;;83.25;27.52;;;;;;;-2.17;100.00;95782.97;5010454;28;20050;-73
2023/03/04 06:26:02;;;;;;;77.13;27.85;;;;;;;-2.19;100.00;95782.34;5019785;28;20046;-73
2023/03/04 06:28:28;;;;;;;81.10;28.13;;;;;;;-2.17;100.00;95790.69;5006114;28;20063;-73
2023/03/04 06:30:55;;;;;;;85.20;28.08;;;;;;;-2.13;100.00;95797.09;5007733;28;20053;-73
2023/03/04 06:33:21;;;;;;;75.57;27.02;;;;;;;-2.09;100.00;95796.53;5003870;28;20053;-73
2023/03/04 06:35:47;;;;;;;85.57;28.08;;;;;;;-2.09;100.00;95798.31;5015273;28;20042;-72
2023/03/04 06:38:13;;;;;;;80.25;27.60;;;;;;;-2.09;100.00;95803.47;5009285;28;20100;-72
2023/03/04 06:40:38;;;;;;;79.53;27.52;;;;;;;-2.00;100.00;95802.38;5014348;28;20042;-72
2023/03/04 06:43:04;;;;;;;78.32;27.27;;;;;;;-1.99;100.00;95801.41;5006093;28;20042;-73
2023/03/04 06:45:29;;;;;;;87.95;31.20;;;;;;;-1.95;100.00;95800.06;5013449;28;20037;-73
2023/03/04 06:47:55;;;;;;;81.78;26.92;;;;;;;-1.90;100.00;95796.13;5008327;28;20062;-75
2023/03/04 06:50:21;;;;;;;84.45;27.73;;;;;;;-1.88;100.00;95799.31;5017594;28;20073;-73
2023/03/04 06:52:48;;;;;;;82.50;28.83;;;;;;;-1.85;100.00;95798.94;5011560;28;20103;-73
2023/03/04 06:55:13;;;;;;;87.97;29.70;;;;;;;-1.80;100.00;95797.41;5015510;28;20046;-74
2023/03/04 06:57:39;;;;;;;83.65;29.20;;;;;;;-1.73;100.00;95807.81;5011764;28;20149;-73
2023/03/04 07:00:05;;;;;;;94.25;29.90;;;;;;;-1.71;100.00;95800.69;5019296;28;20045;-74
2023/03/04 07:02:31;;;;;;;80.18;28.10;;;;;;;-1.71;100.00;95805.84;5018510;28;20047;-74
2023/03/04 07:04:56;;;;;;;93.45;29.67;;;;;;;-1.63;100.00;95816.03;5016436;28;20520;-75
2023/03/04 07:07:22;;;;;;;100.72;31.45;;;;;;;-1.50;100.00;95812.78;5016139;28;20045;-72
2023/03/04 07:09:47;;;;;;;107.55;32.45;;;;;;;-1.41;100.00;95810.84;5018605;28;20057;-71
2023/03/04 07:12:13;;;;;;;94.90;31.58;;;;;;;-1.43;100.00;95812.84;5011543;28;20052;-74
2023/03/04 07:14:39;;;;;;;94.40;32.15;;;;;;;-1.40;100.00;95812.47;5010209;28;20042;-74
2023/03/04 07:17:04;;;;;;;97.07;30.35;;;;;;;-1.32;100.00;95814.91;5006836;28;20100;-76
2023/03/04 07:19:30;;;;;;;106.75;32.67;;;;;;;-1.30;100.00;95812.16;5013368;28;20416;-75
2023/03/04 07:21:55;;;;;;;99.95;34.00;;;;;;;-1.24;100.00;95813.97;5016026;28;20412;-77
2023/03/04 07:24:21;;;;;;;97.53;31.58;;;;;;;-1.14;100.00;95821.41;5014782;28;20460;-75
2023/03/04 07:26:46;;;;;;;93.72;31.95;;;;;;;-1.08;100.00;95816.28;5015916;28;20493;-78
2023/03/04 07:29:12;;;;;;;110.40;33.00;;;;;;;-1.00;100.00;95817.91;5015254;28;20034;-74
2023/03/04 07:31:38;;;;;;;90.38;30.75;;;;;;;-0.87;100.00;95820.59;5012885;28;20073;-74
2023/03/04 07:34:06;;;;;;;102.05;33.50;;;;;;;-0.78;100.00;95823.03;5010623;28;20556;-75
2023/03/04 07:36:35;;;;;;;102.25;34.38;;;;;;;-0.58;100.00;95831.69;5014115;28;20433;-75
2023/03/04 07:39:00;;;;;;;96.00;31.20;;;;;;;-0.63;100.00;95839.22;5011148;28;20037;-75
2023/03/04 07:41:27;;;;;;;102.45;32.90;;;;;;;-0.65;100.00;95830.84;5007607;28;20118;-75
2023/03/04 07:43:52;;;;;;;114.22;35.03;;;;;;;-0.54;100.00;95840.66;5014905;28;20286;-74
2023/03/04 07:46:18;;;;;;;93.97;32.65;;;;;;;-0.48;100.00;95835.72;5009815;28;20042;-74
2023/03/04 07:48:44;;;;;;;105.15;33.42;;;;;;;-0.47;100.00;95832.94;5012716;28;20046;-75
2023/03/04 07:51:13;;;;;;;102.43;31.95;;;;;;;-0.39;100.00;95844.91;5011897;28;20499;-75
2023/03/04 07:53:41;;;;;;;132.07;36.80;;;;;;;-0.29;100.00;95839.38;5012155;28;20053;-74
2023/03/04 07:56:10;;;;;;;113.95;34.30;;;;;;;-0.22;100.00;95841.00;5016310;28;20418;-76
2023/03/04 07:58:36;;;;;;;104.90;33.78;;;;;;;-0.18;100.00;95844.00;5010008;28;20109;-75
2023/03/04 08:01:09;;;;;;;115.38;35.63;;;;;;;-0.24;100.00;95848.16;5009944;28;20049;-76
2023/03/04 08:03:34;;;;;;;143.30;37.90;;;;;;;-0.27;100.00;95853.72;5011200;28;20395;-76
2023/03/04 08:06:03;;;;;;;135.18;38.65;;;;;;;-0.05;100.00;95841.47;5019555;28;20038;-76
2023/03/04 08:08:29;;;;;;;125.43;36.83;;;;;;;-0.04;100.00;95850.03;5010157;28;20050;-75
2023/03/04 08:10:55;;;;;;;140.80;38.60;;;;;;;0.14;100.00;95850.28;5006910;28;20093;-76
2023/03/04 08:13:20;;;;;;;139.90;40.38;;;;;;;0.17;100.00;95847.31;5012768;28;20116;-75
2023/03/04 08:15:46;;;;;;;129.93;37.00;;;;;;;0.15;100.00;95846.69;5016752;28;20044;-75
2023/03/04 08:18:12;;;;;;;147.52;39.92;;;;;;;0.15;100.00;95851.88;5015333;28;20525;-75
2023/03/04 08:20:42;;;;;;;133.32;38.40;;;;;;;0.22;100.00;95845.94;5010785;28;20037;-75
2023/03/04 08:23:08;;;;;;;154.80;40.20;;;;;;;0.25;100.00;95850.72;5012203;28;20049;-74
2023/03/04 08:25:38;;;;;;;161.75;41.75;;;;;;;0.32;100.00;95851.53;5010861;28;20071;-75
2023/03/04 08:28:04;;;;;;;155.80;39.80;;;;;;;0.33;100.00;95851.34;5009183;28;20045;-75
2023/03/04 08:30:30;;;;;;;152.65;42.28;;;;;;;0.42;100.00;95862.31;5010453;28;20042;-75
2023/03/04 08:32:55;;;;;;;178.55;47.20;;;;;;;0.50;100.00;95850.94;5010355;28;20096;-75
2023/03/04 08:35:21;;;;;;;153.35;40.33;;;;;;;0.64;100.00;95851.78;5011602;28;20477;-74
2023/03/04 08:37:46;;;;;;;162.70;43.30;;;;;;;0.57;100.00;95848.38;5013375;28;20033;-77
2023/03/04 08:40:13;;;;;;;163.68;43.05;;;;;;;0.72;100.00;95856.78;5009953;28;20144;-74
2023/03/04 08:42:38;;;;;;;172.10;41.65;;;;;;;0.72;100.00;95851.59;5012533;28;20074;-74
2023/03/04 08:45:04;;;;;;;171.93;44.50;;;;;;;0.67;100.00;95848.78;5014413;28;20057;-75
2023/03/04 08:47:30;;;;;;;161.23;41.92;;;;;;;0.76;100.00;95847.59;5017103;28;20046;-75
2023/03/04 08:49:57;;;;;;;153.52;41.35;;;;;;;0.73;100.00;95852.38;5011881;28;20042;-75
2023/03/04 08:52:23;;;;;;;157.05;42.15;;;;;;;0.82;100.00;95852.00;5008795;28;20149;-74
2023/03/04 08:54:48;;;;;;;148.45;39.50;;;;;;;0.94;100.00;95851.41;5011714;28;20049;-75
2023/03/04 08:57:14;;;;;;;174.52;43.92;;;;;;;0.89;100.00;95856.38;5008570;28;20046;-75
2023/03/04 08:59:39;;;;;;;164.45;41.67;;;;;;;0.97;100.00;95853.59;5009146;28;20069;-75
2023/03/04 09:02:05;;;;;;;142.25;40.75;;;;;;;0.92;100.00;95853.38;5008763;28;20046;-74
2023/03/04 09:04:31;;;;;;;155.10;40.13;;;;;;;1.10;100.00;95852.78;5004738;28;20111;-74
2023/03/04 09:06:56;;;;;;;177.95;44.20;;;;;;;1.21;100.00;95849.59;5014007;28;20497;-73
2023/03/04 09:09:22;;;;;;;148.45;40.25;;;;;;;1.12;100.00;95849.00;5015654;28;20433;-75
2023/03/04 09:11:47;;;;;;;160.27;39.42;;;;;;;1.18;100.00;95848.19;5011594;28;20037;-75
2023/03/04 09:14:13;;;;;;;167.88;41.95;;;;;;;1.33;100.00;95844.56;5009296;28;20052;-74
2023/03/04 09:16:38;;;;;;;149.77;38.10;;;;;;;1.45;100.00;95850.75;5010375;28;20074;-74
2023/03/04 09:19:04;;;;;;;157.70;40.65;;;;;;;1.35;100.00;95845.16;5012938;28;20048;-74
2023/03/04 09:21:30;;;;;;;146.70;38.55;;;;;;;1.55;100.00;95838.13;5008895;28;20509;-75
2023/03/04 09:23:55;;;;;;;159.45;39.58;;;;;;;1.64;100.00;95832.72;5010368;28;20045;-75
2023/03/04 09:26:23;;;;;;;150.65;38.08;;;;;;;1.77;100.00;95834.47;5008567;28;20472;-74
2023/03/04 09:28:52;;;;;;;137.32;36.88;;;;;;;1.92;100.00;95831.63;5011420;28;20041;-75
2023/03/04 09:31:17;;;;;;;136.13;36.40;;;;;;;1.89;100.00;95825.81;5009850;28;20050;-76
2023/03/04 09:33:43;;;;;;;137.25;37.22;;;;;;;2.12;100.00;95824.53;5011309;28;20061;-74
2023/03/04 09:36:10;;;;;;;148.10;36.72;;;;;;;2.21;100.00;95831.09;5010071;28;20529;-75
2023/03/04 09:38:37;;;;;;;129.73;36.08;;;;;;;2.43;100.00;95825.56;5011059;28;20037;-74
2023/03/04 09:41:07;;;;;;;120.13;30.70;;;;;;;2.56;100.00;95833.25;5011658;28;20048;-75
2023/03/04 09:43:34;;;;;;;108.97;30.65;;;;;;;2.82;100.00;95834.09;5019203;28;20061;-75
2023/03/04 09:46:09;;;;;;;123.20;33.67;;;;;;;2.74;100.00;95829.94;5015930;28;20034;-74
2023/03/04 09:48:50;;;;;;;109.82;31.08;;;;;;;2.91;100.00;95832.78;5011935;28;20046;-72
2023/03/04 09:51:35;;;;;;;107.97;32.72;;;;;;;3.34;100.00;95833.03;5012998;28;20073;-72
2023/03/04 09:54:06;;;;;;;105.20;29.17;;;;;;;3.68;100.00;95831.69;5009308;28;20045;-74
2023/03/04 09:56:37;;;;;;;103.78;30.25;;;;;;;3.72;100.00;95837.25;5010412;28;20038;-74
2023/03/04 09:59:24;;;;;;;110.65;29.63;;;;;;;3.66;100.00;95832.91;5012460;28;20042;-74
2023/03/04 10:01:57;;;;;;;110.55;31.98;;;;;;;3.85;100.00;95834.50;5012887;28;20113;-75
2023/03/04 10:04:49;;;;;;;101.00;28.48;;;;;;;3.80;100.00;95823.94;5006597;28;20038;-74
2023/03/04 10:07:26;;;;;;;116.22;31.48;;;;;;;4.17;100.00;95818.69;5006616;28;20069;-74
2023/03/04 10:10:18;;;;;;;116.70;31.58;;;;;;;4.28;100.00;95820.53;5012906;28;20469;-74
2023/03/04 10:12:48;;;;;;;105.70;30.80;;;;;;;4.47;100.00;95813.44;5012932;28;20148;-74
2023/03/04 10:15:25;;;;;;;111.55;32.30;;;;;;;4.94;100.00;95807.53;5018742;28;20045;-75
2023/03/04 10:17:59;;;;;;;106.97;31.52;;;;;;;5.80;100.00;95808.81;5010816;28;20041;-74
2023/03/04 10:20:30;;;;;;;116.28;32.90;;;;;;;6.39;100.00;95806.81;5011326;28;20034;-74
2023/03/04 10:22:58;;;;;;;123.68;30.67;;;;;;;7.09;100.00;95794.28;5010518;28;20034;-75
2023/03/04 10:25:29;;;;;;;102.03;30.70;;;;;;;6.31;100.00;95794.09;5012922;28;20050;-75
2023/03/04 10:27:58;;;;;;;108.30;31.25;;;;;;;7.59;100.00;95797.06;5013979;28;20042;-75
2023/03/04 10:30:35;;;;;;;112.40;31.92;;;;;;;8.10;100.00;95789.78;5011876;28;20111;-74
2023/03/04 10:33:01;;;;;;;102.13;31.60;;;;;;;8.12;95.48;95776.44;5010038;28;20046;-74
2023/03/04 10:35:35;;;;;;;100.10;31.20;;;;;;;7.68;99.42;95790.34;5013035;28;20069;-74
2023/03/04 10:38:02;;;;;;;118.03;32.42;;;;;;;8.39;88.14;95783.50;5016787;28;20509;-75
2023/03/04 10:40:28;;;;;;;106.18;33.10;;;;;;;8.75;91.82;95774.16;5014694;28;20037;-74
2023/03/04 10:42:54;;;;;;;89.50;30.30;;;;;;;9.87;82.36;95780.28;5005082;28;20038;-75
2023/03/04 10:45:26;;;;;;;104.30;31.25;;;;;;;9.53;85.78;95786.69;5014696;28;20061;-74
2023/03/04 10:47:55;;;;;;;105.82;33.05;;;;;;;9.06;86.14;95771.72;5011496;28;20096;-74
2023/03/04 10:50:25;;;;;;;91.13;28.30;;;;;;;9.66;80.57;95774.16;5009863;28;20414;-73
2023/03/04 10:52:52;;;;;;;97.60;30.52;;;;;;;9.58;83.01;95772.00;5010252;28;20045;-74
2023/03/04 10:55:28;;;;;;;91.97;31.40;;;;;;;9.97;82.86;95771.63;5009907;28;20042;-73
2023/03/04 10:58:01;;;;;;;99.05;29.95;;;;;;;10.07;78.05;95779.56;5013829;28;20038;-71
2023/03/04 11:00:32;;;;;;;96.20;30.70;;;;;;;10.57;76.27;95772.84;5011600;28;20050;-70
2023/03/04 11:03:31;;;;;;;93.43;29.48;;;;;;;10.74;77.15;95766.50;5012089;28;20158;-71
2023/03/04 11:06:07;;;;;;;88.70;28.75;;;;;;;10.57;72.88;95762.31;4992163;28;20050;-73
2023/03/04 11:08:32;;;;;;;91.07;30.90;;;;;;;10.53;73.22;95761.25;5010283;28;20152;-75